Mars Hill, Maine
Current Conditions -  °F | °C
As of 12:35 AM on Thursday 27 Nov 2014 (Local Time) from KPQI Reporting Station
Overcast Overcast  
Wind Chill: 15°   Ceiling: 1400
Heat Index: 27°   Visibility: 2.5mi
Dew Point: 21°   Wind: 15mph
Humidity: 80%   Direction: 20°NNE
Pressure: 29.91"   Gusts: 25mph
Location:  46.52°N, 67.87°W
Report Text: KPQI 270535Z AUTO 02013G22KT 2 1/2SM FEW009 BKN014 OVC027 M03/M06 A2991 RMK AO1
Loading
Personal Weather Stations






























Interactive Weather Map New forecast layout! Learn more

10-Day Weather Forecast

Advertisements
Track Severe Weather on mobile